This is the latest recevied weather packets stored in our database for station/object OK2CME-6. If no packets are shown the sender has not sent any weather packets the latest 10 day(s).
| Time | Temp. | Humidity | Pressure | Rain* | Wind** | Luminosity | Snow |
|---|---|---|---|---|---|---|---|
| 1778258149 | 12.78° C | 77% | 1020.7 hPa | 0 mm | - | 90 W/m² | - |
| 1778256949 | 13.33° C | 74% | 1020.9 hPa | 0 mm | - | 180 W/m² | - |
| 1778255749 | 13.89° C | 67% | 1020.7 hPa | 0 mm | - | 99 W/m² | - |
| 1778254549 | 13.33° C | 72% | 1020.7 hPa | 0 mm | - | 98 W/m² | - |
| 1778253349 | 13.89° C | 69% | 1020.7 hPa | 0 mm | - | 88 W/m² | - |
| 1778252148 | 13.33° C | 72% | 1020.7 hPa | 0 mm | - | 89 W/m² | - |
| 1778250949 | 13.33° C | 70% | 1020.7 hPa | 0 mm | - | 91 W/m² | - |
| 1778249749 | 13.89° C | 72% | 1020.4 hPa | 0 mm | - | 130 W/m² | - |
| 1778248548 | 13.89° C | 71% | 1020.5 hPa | 0 mm | - | 168 W/m² | - |
| 1778247349 | 14.44° C | 68% | 1020.4 hPa | 0 mm | - | 605 W/m² | - |
| 1778246149 | 13.89° C | 68% | 1020.5 hPa | 0 mm | - | 221 W/m² | - |
| 1778244949 | 13.89° C | 66% | 1020.6 hPa | 0 mm | - | 172 W/m² | - |
| 1778243749 | 15.56° C | 65% | 1020.5 hPa | 0 mm | - | 737 W/m² | - |
| 1778242549 | 13.89° C | 68% | 1020.4 hPa | 0 mm | - | 242 W/m² | - |
| 1778241349 | 15° C | 64% | 1020.5 hPa | 0 mm | - | 208 W/m² | - |
| 1778240149 | 13.89° C | 65% | 1020.4 hPa | 0 mm | - | 196 W/m² | - |
| 1778238949 | 15.56° C | 57% | 1020.4 hPa | 0 mm | - | 352 W/m² | - |
| 1778237749 | 14.44° C | 62% | 1020.3 hPa | 0 mm | - | 206 W/m² | - |
| 1778236549 | 13.89° C | 64% | 1020.5 hPa | 0 mm | - | 401 W/m² | - |
| 1778235349 | 15.56° C | 61% | 1020.5 hPa | 0 mm | - | 275 W/m² | - |
| 1778234149 | 13.33° C | 70% | 1020.7 hPa | 0 mm | - | 577 W/m² | - |
| 1778232949 | 13.33° C | 68% | 1020.6 hPa | 0 mm | - | 813 W/m² | - |
| 1778231749 | 12.78° C | 74% | 1020.6 hPa | 0 mm | - | 730 W/m² | - |
| 1778230549 | 12.22° C | 76% | 1020.6 hPa | 0 mm | - | 122 W/m² | - |
| 1778229349 | 12.22° C | 73% | 1020.4 hPa | 0 mm | - | 224 W/m² | - |
* Rain latest hour (hover to see other rain measurements)
** Current wind speed in m/s (hover to see current wind gust speed)